createdAt,value
2019-05-30T00:00:19.592Z,8.80
2019-05-30T00:02:50.728Z,9.17
2019-05-30T00:05:23.271Z,8.43
2019-05-30T00:07:56.058Z,8.83
2019-05-30T00:10:29.490Z,7.63
2019-05-30T00:13:05.024Z,9.47
2019-05-30T00:15:36.968Z,11.17
2019-05-30T00:18:10.339Z,26.13
2019-05-30T00:20:43.022Z,10.33
2019-05-30T00:23:17.853Z,11.53
2019-05-30T00:25:55.145Z,11.07
2019-05-30T00:28:31.880Z,9.03
2019-05-30T00:31:08.626Z,11.23
2019-05-30T00:33:40.616Z,13.17
2019-05-30T00:36:12.043Z,11.90
2019-05-30T01:03:03.545Z,17.77
2019-05-30T01:05:36.142Z,16.53
2019-05-30T01:08:08.946Z,16.67
2019-05-30T01:10:40.045Z,11.37
2019-05-30T01:13:16.623Z,11.33
2019-05-30T01:15:49.370Z,9.50
2019-05-30T01:18:21.897Z,10.50
2019-05-30T01:21:05.410Z,11.17
2019-05-30T01:23:39.140Z,15.27
2019-05-30T01:26:13.579Z,14.23
2019-05-30T01:28:48.410Z,12.37
2019-05-30T01:31:25.145Z,13.47
2019-05-30T01:33:57.486Z,11.27
2019-05-30T01:36:28.985Z,14.63
2019-05-30T01:39:01.791Z,13.80
2019-05-30T01:41:37.716Z,15.17
2019-05-30T01:44:18.166Z,20.20
2019-05-30T01:46:50.943Z,17.60
2019-05-30T01:49:25.614Z,14.97
2019-05-30T01:52:02.414Z,15.23
2019-05-30T01:54:35.042Z,16.10
2019-05-30T01:57:08.746Z,14.97
2019-05-30T01:59:44.834Z,16.60
2019-05-30T02:02:15.201Z,16.80
2019-05-30T02:04:46.458Z,17.40
2019-05-30T02:07:17.416Z,18.33
2019-05-30T02:09:48.907Z,18.03
2019-05-30T02:12:19.907Z,16.93
2019-05-30T02:14:50.545Z,15.90
2019-05-30T02:17:21.209Z,16.83
2019-05-30T02:20:01.835Z,17.40
2019-05-30T02:22:33.441Z,17.87
2019-05-30T02:25:06.234Z,17.27
2019-05-30T02:27:40.906Z,18.47
2019-05-30T02:30:14.839Z,17.43
2019-05-30T02:32:44.710Z,16.60
2019-05-30T02:35:16.579Z,14.40
2019-05-30T02:37:48.109Z,15.80
2019-05-30T02:40:19.238Z,14.73
2019-05-30T02:42:50.155Z,15.53
2019-05-30T02:45:21.562Z,14.83
2019-05-30T02:47:52.487Z,13.50
2019-05-30T02:50:23.336Z,14.10
2019-05-30T02:52:54.956Z,13.37
2019-05-30T02:55:25.600Z,13.37
2019-05-30T02:58:03.550Z,15.97
2019-05-30T03:00:36.847Z,16.30
2019-05-30T03:03:09.797Z,15.63
2019-05-30T03:05:40.023Z,17.40
2019-05-30T03:08:14.301Z,17.43
2019-05-30T03:10:44.562Z,19.30
2019-05-30T03:13:16.203Z,17.70
2019-05-30T03:15:47.026Z,17.30
2019-05-30T03:18:18.097Z,15.80
2019-05-30T03:20:49.351Z,15.63
2019-05-30T03:23:20.368Z,15.77
2019-05-30T03:25:51.351Z,15.80
2019-05-30T03:28:22.777Z,17.10
2019-05-30T03:30:53.842Z,16.47
2019-05-30T03:33:39.323Z,17.97
2019-05-30T03:35:58.372Z,19.03
2019-05-30T03:38:29.726Z,19.10
2019-05-30T03:41:00.728Z,18.63
2019-05-30T03:43:44.855Z,16.97
2019-05-30T03:46:21.422Z,20.87
2019-05-30T03:48:55.232Z,19.53
2019-05-30T03:51:27.232Z,19.10
2019-05-30T03:54:04.818Z,21.80
2019-05-30T03:56:42.028Z,18.83
2019-05-30T03:59:38.990Z,23.20
2019-05-30T04:02:56.639Z,21.67
2019-05-30T04:05:24.863Z,20.43
2019-05-30T04:07:57.815Z,21.77
2019-05-30T04:10:35.653Z,22.13
2019-05-30T04:13:45.505Z,27.00
2019-05-30T04:16:17.166Z,20.67
2019-05-30T04:18:48.611Z,21.53
2019-05-30T04:21:21.644Z,25.87
2019-05-30T04:23:52.943Z,21.73
2019-05-30T04:26:24.191Z,17.63
2019-05-30T04:28:55.116Z,20.53
2019-05-30T04:31:25.932Z,16.00
2019-05-30T04:33:56.765Z,22.10
2019-05-30T04:36:27.431Z,19.23
2019-05-30T04:38:58.781Z,18.67
2019-05-30T04:41:29.789Z,17.63
2019-05-30T04:44:00.771Z,18.50
2019-05-30T04:46:35.794Z,19.30
2019-05-30T04:49:07.505Z,18.80
2019-05-30T04:51:38.180Z,18.70
2019-05-30T04:54:10.377Z,18.23
2019-05-30T04:56:42.143Z,18.53
2019-05-30T04:59:15.082Z,17.57
2019-05-30T05:01:46.073Z,18.03
2019-05-30T05:04:17.762Z,18.77
2019-05-30T05:06:49.802Z,21.13
2019-05-30T05:09:22.469Z,19.93
2019-05-30T05:12:00.003Z,17.97
2019-05-30T05:14:31.762Z,19.23
2019-05-30T05:17:03.287Z,19.47
2019-05-30T05:19:35.283Z,21.30
2019-05-30T05:22:06.030Z,20.03
2019-05-30T05:24:37.140Z,20.87
2019-05-30T05:27:20.293Z,20.23
2019-05-30T05:29:52.010Z,19.90
2019-05-30T05:32:22.753Z,21.70
2019-05-30T05:34:53.078Z,19.73
2019-05-30T05:37:25.323Z,19.43
2019-05-30T05:39:56.099Z,18.60
2019-05-30T05:42:29.901Z,18.73
2019-05-30T05:44:59.842Z,18.57
2019-05-30T05:47:30.877Z,21.53
2019-05-30T05:50:01.924Z,18.23
2019-05-30T05:52:33.008Z,19.23
2019-05-30T05:55:03.685Z,17.07
2019-05-30T05:57:34.867Z,16.37
2019-05-30T06:00:09.159Z,17.93
2019-05-30T06:02:40.197Z,16.97
2019-05-30T06:05:11.848Z,15.03
2019-05-30T06:07:43.203Z,15.10
2019-05-30T06:10:19.467Z,15.53
2019-05-30T06:12:51.366Z,14.83
2019-05-30T06:15:22.952Z,17.17
2019-05-30T06:17:54.002Z,15.93
2019-05-30T06:20:25.372Z,15.27
2019-05-30T06:22:56.748Z,14.57
2019-05-30T06:25:32.466Z,17.33
2019-05-30T06:28:00.436Z,13.83
2019-05-30T06:30:35.349Z,12.80
2019-05-30T06:33:08.443Z,13.60
2019-05-30T06:35:41.415Z,15.23
2019-05-30T06:38:19.143Z,12.60
2019-05-30T06:40:50.367Z,15.23
2019-05-30T06:43:21.940Z,16.20
2019-05-30T06:45:53.583Z,15.13
2019-05-30T06:48:26.948Z,16.83
2019-05-30T06:50:58.911Z,13.67
2019-05-30T06:53:32.057Z,13.87
2019-05-30T06:56:03.451Z,14.13
2019-05-30T06:58:48.107Z,16.20
2019-05-30T07:01:11.902Z,14.43
2019-05-30T07:06:22.946Z,14.03
2019-05-30T07:08:56.795Z,13.73
2019-05-30T07:11:29.297Z,13.90
2019-05-30T07:14:05.913Z,18.10
2019-05-30T07:16:41.220Z,12.90
2019-05-30T07:19:12.214Z,13.87
2019-05-30T07:21:43.680Z,14.03
2019-05-30T07:24:15.432Z,14.97
2019-05-30T07:26:46.531Z,13.80
2019-05-30T07:29:17.512Z,14.07
2019-05-30T07:31:49.310Z,13.43
2019-05-30T07:34:21.363Z,14.70
2019-05-30T07:36:53.326Z,15.07
2019-05-30T07:39:27.136Z,12.27
2019-05-30T07:42:06.292Z,13.20
2019-05-30T07:44:30.860Z,12.47
2019-05-30T07:47:01.993Z,13.10
2019-05-30T07:49:34.622Z,11.77
2019-05-30T07:52:06.062Z,12.03
2019-05-30T07:54:39.185Z,11.93
2019-05-30T07:57:10.670Z,11.77
2019-05-30T07:59:42.071Z,11.83
2019-05-30T08:02:13.071Z,11.67
2019-05-30T08:04:47.009Z,12.43
2019-05-30T08:07:17.059Z,12.20
2019-05-30T08:09:47.677Z,11.30
2019-05-30T08:12:19.384Z,11.53
2019-05-30T08:14:56.341Z,15.63
2019-05-30T08:17:27.483Z,13.17
2019-05-30T08:19:58.519Z,11.53
2019-05-30T08:22:31.953Z,10.40
2019-05-30T08:25:03.448Z,9.97
2019-05-30T08:27:38.703Z,10.20
2019-05-30T08:30:10.905Z,9.53
2019-05-30T08:32:42.649Z,10.60
2019-05-30T08:35:16.559Z,11.97
2019-05-30T08:37:49.224Z,10.23
2019-05-30T08:40:20.874Z,9.55
2019-05-30T08:42:52.133Z,11.57
2019-05-30T08:45:24.051Z,9.70
2019-05-30T08:47:55.526Z,11.00
2019-05-30T08:50:26.472Z,10.70
2019-05-30T08:53:00.151Z,9.63
2019-05-30T08:55:32.303Z,9.73
2019-05-30T08:58:03.746Z,10.58
2019-05-30T09:00:35.155Z,11.20
2019-05-30T09:03:07.323Z,9.13
2019-05-30T09:05:58.222Z,8.80
2019-05-30T09:08:13.893Z,14.65
2019-05-30T09:10:46.931Z,11.38
2019-05-30T09:13:18.193Z,8.45
2019-05-30T09:15:55.807Z,9.88
2019-05-30T09:18:27.129Z,11.10
2019-05-30T09:20:59.671Z,9.53
2019-05-30T09:23:30.660Z,8.23
2019-05-30T09:26:02.459Z,9.68
2019-05-30T09:28:34.185Z,8.25
2019-05-30T09:31:05.378Z,8.83
2019-05-30T09:33:38.094Z,8.58
2019-05-30T09:36:13.248Z,9.38
2019-05-30T09:38:49.745Z,9.03
2019-05-30T09:41:21.175Z,8.55
2019-05-30T09:43:52.640Z,9.33
2019-05-30T09:46:29.811Z,9.75
2019-05-30T09:49:00.441Z,8.98
2019-05-30T09:51:31.815Z,8.58
2019-05-30T09:54:02.959Z,8.15
2019-05-30T09:56:34.386Z,9.30
2019-05-30T09:59:05.160Z,8.45
2019-05-30T10:01:35.805Z,7.45
2019-05-30T10:04:06.854Z,8.15
2019-05-30T10:06:39.933Z,8.05
2019-05-30T10:09:11.324Z,7.33
2019-05-30T10:11:42.781Z,6.90
2019-05-30T10:14:14.176Z,7.15
2019-05-30T10:16:53.372Z,8.05
2019-05-30T10:19:22.298Z,7.17
2019-05-30T10:21:53.862Z,10.45
2019-05-30T10:24:25.470Z,7.83
2019-05-30T10:26:57.382Z,7.33
2019-05-30T10:29:29.608Z,6.45
2019-05-30T10:32:06.669Z,9.20
2019-05-30T10:34:38.941Z,6.37
2019-05-30T10:37:10.717Z,6.20
2019-05-30T10:39:41.377Z,7.05
2019-05-30T10:42:13.126Z,6.40
2019-05-30T10:44:43.735Z,7.28
2019-05-30T10:47:17.698Z,7.40
2019-05-30T10:49:55.518Z,5.20
2019-05-30T10:52:28.373Z,5.92
2019-05-30T10:54:58.721Z,5.50
2019-05-30T10:57:39.853Z,5.10
2019-05-30T11:00:12.780Z,4.95
2019-05-30T11:02:43.852Z,4.58
2019-05-30T11:05:18.384Z,4.50
2019-05-30T11:08:06.101Z,4.40
2019-05-30T11:10:48.536Z,3.77
2019-05-30T11:13:20.924Z,4.22
2019-05-30T11:15:51.774Z,4.78
2019-05-30T11:18:26.831Z,3.42
2019-05-30T11:21:12.906Z,3.45
2019-05-30T11:23:44.313Z,3.20
2019-05-30T11:26:15.043Z,2.17
2019-05-30T11:28:45.800Z,2.50
2019-05-30T11:31:26.641Z,2.02
2019-05-30T11:33:55.299Z,1.98
2019-05-30T11:36:26.563Z,2.25
2019-05-30T11:39:00.172Z,3.30
2019-05-30T11:42:11.654Z,2.75
2019-05-30T11:44:42.236Z,3.40
2019-05-30T11:47:13.658Z,2.45
2019-05-30T11:49:44.379Z,6.47
2019-05-30T11:52:15.936Z,4.62
2019-05-30T11:54:52.022Z,8.63
2019-05-30T11:57:22.742Z,4.70
2019-05-30T11:59:54.248Z,5.40
2019-05-30T12:02:25.229Z,4.40
2019-05-30T12:04:56.578Z,3.12
2019-05-30T12:07:36.485Z,7.97
2019-05-30T12:10:01.067Z,8.65
2019-05-30T12:12:32.707Z,10.00
2019-05-30T12:15:04.047Z,3.50
2019-05-30T12:17:36.800Z,3.27
2019-05-30T12:20:09.987Z,3.83
2019-05-30T12:22:52.015Z,9.63
2019-05-30T12:25:24.087Z,4.35
2019-05-30T12:27:55.947Z,4.80
2019-05-30T12:30:28.062Z,3.40
2019-05-30T12:33:00.680Z,2.85
2019-05-30T12:35:34.386Z,3.98
2019-05-30T12:38:09.315Z,2.80
2019-05-30T12:40:40.991Z,2.72
2019-05-30T12:43:12.455Z,2.12
2019-05-30T12:45:43.071Z,3.40
2019-05-30T12:48:14.084Z,2.65
2019-05-30T12:50:45.109Z,3.17
2019-05-30T12:53:15.739Z,1.85
2019-05-30T12:55:47.020Z,2.55
2019-05-30T12:58:18.014Z,2.47
2019-05-30T13:00:56.655Z,2.20
2019-05-30T13:03:27.328Z,5.28
2019-05-30T13:05:59.147Z,2.52
2019-05-30T13:08:29.969Z,3.30
2019-05-30T13:11:01.760Z,1.15
2019-05-30T13:13:33.313Z,2.45
2019-05-30T13:16:07.617Z,1.77
2019-05-30T13:18:38.032Z,2.33
2019-05-30T13:21:09.010Z,1.25
2019-05-30T13:23:40.169Z,2.17
2019-05-30T13:26:11.330Z,1.55
2019-05-30T13:28:42.699Z,2.08
2019-05-30T13:31:13.737Z,2.22
2019-05-30T13:33:45.305Z,2.02
2019-05-30T13:36:17.019Z,2.15
2019-05-30T13:38:48.246Z,2.58
2019-05-30T13:41:19.426Z,0.95
2019-05-30T13:43:50.770Z,2.02
2019-05-30T13:46:22.137Z,1.92
2019-05-30T13:48:53.184Z,1.62
2019-05-30T13:51:24.257Z,0.93
2019-05-30T13:53:55.259Z,1.92
2019-05-30T13:56:25.888Z,1.75
2019-05-30T13:58:57.235Z,0.90
2019-05-30T14:01:28.609Z,1.82
2019-05-30T14:04:00.026Z,1.10
2019-05-30T14:06:35.271Z,2.47
2019-05-30T14:09:10.471Z,1.67
2019-05-30T14:11:43.116Z,3.92
2019-05-30T14:14:15.804Z,1.22
2019-05-30T14:16:47.839Z,1.77
2019-05-30T14:19:53.549Z,1.80
2019-05-30T14:22:24.823Z,1.42
2019-05-30T14:24:57.100Z,0.62
2019-05-30T14:27:28.975Z,1.70
2019-05-30T14:30:00.011Z,4.17
2019-05-30T14:32:32.387Z,2.27
2019-05-30T14:35:04.120Z,3.40
2019-05-30T14:37:35.899Z,3.80
2019-05-30T14:40:08.707Z,3.35
2019-05-30T14:42:39.752Z,1.47
2019-05-30T14:45:10.841Z,1.80
2019-05-30T14:47:42.154Z,2.72
2019-05-30T14:50:13.686Z,1.55
2019-05-30T14:52:44.392Z,2.12
2019-05-30T14:55:15.441Z,1.52
2019-05-30T14:57:46.478Z,1.15
2019-05-30T15:00:18.388Z,1.37
2019-05-30T15:02:49.030Z,1.92
2019-05-30T15:05:19.464Z,1.00
2019-05-30T15:07:50.126Z,1.77
2019-05-30T15:10:21.324Z,1.57
2019-05-30T15:12:52.676Z,1.65
2019-05-30T15:15:23.487Z,1.15
2019-05-30T15:17:54.189Z,1.57
2019-05-30T15:20:27.257Z,1.57
2019-05-30T15:22:58.991Z,2.72
2019-05-30T15:25:30.352Z,1.77
2019-05-30T15:28:01.351Z,1.87
2019-05-30T15:30:32.427Z,1.25
2019-05-30T15:33:03.837Z,1.15
2019-05-30T15:35:34.796Z,2.08
2019-05-30T15:38:06.636Z,1.62
2019-05-30T15:40:38.236Z,2.50
2019-05-30T15:43:09.352Z,2.37
2019-05-30T15:45:40.346Z,2.37
2019-05-30T15:48:12.309Z,1.50
2019-05-30T15:50:42.671Z,1.40
2019-05-30T15:53:15.110Z,3.25
2019-05-30T15:55:47.188Z,1.87
2019-05-30T15:58:20.784Z,1.55
2019-05-30T16:00:52.087Z,2.27
2019-05-30T16:03:23.155Z,2.10
2019-05-30T16:05:54.444Z,2.22
2019-05-30T16:08:25.941Z,1.50
2019-05-30T16:10:57.534Z,2.90
2019-05-30T16:13:29.583Z,1.80
2019-05-30T16:16:00.636Z,2.00
2019-05-30T16:18:31.964Z,2.98
2019-05-30T16:21:15.595Z,1.70
2019-05-30T16:23:46.572Z,1.72
2019-05-30T16:26:17.642Z,1.67
2019-05-30T16:28:48.709Z,1.92
2019-05-30T16:31:19.886Z,3.22
2019-05-30T16:33:51.623Z,2.00
2019-05-30T16:36:22.654Z,2.55
2019-05-30T16:38:53.641Z,1.85
2019-05-30T16:41:24.890Z,2.15
2019-05-30T16:43:56.211Z,2.27
2019-05-30T16:46:27.405Z,2.92
2019-05-30T16:48:58.777Z,3.08
2019-05-30T16:51:29.836Z,1.87
2019-05-30T16:54:00.808Z,2.52
2019-05-30T16:56:34.200Z,1.92
2019-05-30T16:59:18.594Z,1.98
2019-05-30T17:01:57.958Z,3.25
2019-05-30T17:04:30.383Z,3.02
2019-05-30T17:07:01.764Z,2.15
2019-05-30T17:09:33.845Z,2.52
2019-05-30T17:12:04.805Z,3.02
2019-05-30T17:14:45.771Z,4.35
2019-05-30T17:17:18.095Z,1.85
2019-05-30T17:19:53.658Z,2.22
2019-05-30T17:22:25.912Z,3.95
2019-05-30T17:25:04.044Z,2.33
2019-05-30T17:27:35.879Z,4.08
2019-05-30T17:30:07.311Z,8.20
2019-05-30T17:32:38.612Z,4.12
2019-05-30T17:35:10.188Z,2.20
2019-05-30T17:37:41.126Z,3.33
2019-05-30T17:40:14.825Z,2.92
2019-05-30T17:42:46.165Z,2.67
2019-05-30T17:45:19.005Z,2.98
2019-05-30T17:47:59.513Z,3.58
2019-05-30T17:50:23.754Z,1.87
2019-05-30T17:52:58.283Z,1.63
2019-05-30T17:55:28.621Z,2.13
2019-05-30T17:57:59.290Z,2.35
2019-05-30T18:00:30.644Z,2.95
2019-05-30T18:03:02.964Z,2.27
2019-05-30T18:05:37.080Z,3.30
2019-05-30T18:08:06.995Z,2.77
2019-05-30T18:10:37.650Z,4.63
2019-05-30T18:13:09.075Z,3.50
2019-05-30T18:15:39.721Z,3.07
2019-05-30T18:18:10.667Z,4.03
2019-05-30T18:20:48.727Z,2.93
2019-05-30T18:23:19.482Z,3.60
2019-05-30T18:25:50.430Z,2.63
2019-05-30T18:28:21.785Z,5.27
2019-05-30T18:30:52.921Z,4.07
2019-05-30T18:33:33.688Z,4.07
2019-05-30T18:36:04.743Z,3.50
2019-05-30T18:38:35.538Z,3.30
2019-05-30T18:41:11.559Z,3.83
2019-05-30T18:43:38.947Z,5.40
2019-05-30T18:46:09.262Z,4.30
2019-05-30T18:48:40.570Z,6.67
2019-05-30T18:51:12.243Z,5.73
2019-05-30T18:53:44.383Z,4.77
2019-05-30T18:56:15.827Z,6.67
2019-05-30T18:58:46.713Z,6.80
2019-05-30T19:01:18.374Z,7.37
2019-05-30T19:03:49.187Z,5.27
2019-05-30T19:06:20.675Z,3.90
2019-05-30T19:08:52.090Z,5.00
2019-05-30T19:11:28.198Z,5.57
2019-05-30T19:13:56.801Z,6.43
2019-05-30T19:16:28.520Z,6.27
2019-05-30T19:19:00.194Z,5.90
2019-05-30T19:21:32.039Z,10.40
2019-05-30T19:24:03.429Z,7.07
2019-05-30T19:26:36.741Z,5.33
2019-05-30T19:29:08.030Z,5.17
2019-05-30T19:31:39.413Z,8.80
2019-05-30T19:34:14.298Z,8.80
2019-05-30T19:36:45.414Z,5.80
2019-05-30T19:39:16.494Z,5.57
2019-05-30T19:41:56.901Z,9.90
2019-05-30T19:44:21.349Z,10.17
2019-05-30T19:47:00.028Z,7.30
2019-05-30T19:49:32.394Z,9.03
2019-05-30T19:52:03.634Z,9.00
2019-05-30T19:54:35.231Z,7.97
2019-05-30T19:57:06.375Z,13.10
2019-05-30T19:59:39.877Z,15.33
2019-05-30T20:02:12.203Z,16.03
2019-05-30T20:04:46.134Z,11.20
2019-05-30T20:07:19.411Z,12.50
2019-05-30T20:10:01.271Z,9.03
2019-05-30T20:12:30.612Z,7.83
2019-05-30T20:15:01.737Z,7.20
2019-05-30T20:17:33.656Z,7.07
2019-05-30T20:20:06.282Z,7.03
2019-05-30T20:22:56.125Z,9.20
2019-05-30T20:25:29.258Z,7.83
2019-05-30T20:28:03.059Z,7.67
2019-05-30T20:30:35.033Z,8.10
2019-05-30T20:33:07.272Z,7.97
2019-05-30T20:35:40.507Z,9.23
2019-05-30T20:38:13.874Z,7.33
2019-05-30T20:40:45.003Z,8.47
2019-05-30T20:43:16.750Z,36.47
2019-05-30T20:45:49.973Z,17.43
2019-05-30T20:48:20.969Z,31.17
2019-05-30T20:50:52.229Z,10.07
2019-05-30T20:53:31.964Z,7.13
2019-05-30T20:56:06.472Z,7.13
2019-05-30T20:58:37.865Z,6.83
2019-05-30T21:01:08.714Z,8.77
2019-05-30T21:03:40.303Z,8.53
2019-05-30T21:06:12.024Z,9.40
2019-05-30T21:08:59.080Z,8.90
2019-05-30T21:11:31.621Z,7.27
2019-05-30T21:14:03.878Z,8.20
2019-05-30T21:16:37.634Z,7.53
2019-05-30T21:19:08.869Z,7.73
2019-05-30T21:21:44.271Z,6.17
2019-05-30T21:24:24.902Z,5.50
2019-05-30T21:26:56.042Z,5.93
2019-05-30T21:29:29.308Z,6.13
2019-05-30T21:32:05.101Z,5.40
2019-05-30T21:34:35.600Z,10.97
2019-05-30T21:37:07.889Z,9.57
2019-05-30T21:39:40.015Z,32.53
2019-05-30T21:42:11.006Z,47.10
2019-05-30T21:44:43.375Z,45.67
2019-05-30T21:47:14.319Z,17.87
2019-05-30T21:49:54.792Z,9.30
2019-05-30T21:52:46.368Z,6.60
2019-05-30T21:55:50.761Z,7.37
2019-05-30T21:58:23.874Z,17.33
2019-05-30T22:01:32.433Z,12.77
2019-05-30T22:04:04.966Z,30.60
2019-05-30T22:06:38.922Z,25.80
2019-05-30T22:09:15.644Z,18.70
2019-05-30T22:11:47.790Z,19.77
2019-05-30T22:14:28.514Z,12.73
2019-05-30T22:17:02.927Z,16.27
2019-05-30T22:19:38.286Z,10.33
2019-05-30T22:22:12.977Z,10.33
2019-05-30T22:24:46.820Z,6.10
2019-05-30T22:27:17.941Z,8.57
2019-05-30T22:30:01.863Z,6.83
2019-05-30T22:32:44.641Z,4.07
2019-05-30T22:35:19.321Z,4.63
2019-05-30T22:37:53.123Z,4.70
2019-05-30T22:40:33.894Z,6.53
2019-05-30T22:43:24.813Z,10.97
2019-05-30T22:45:50.312Z,5.57
2019-05-30T22:48:22.594Z,4.77
2019-05-30T22:50:57.096Z,6.37
2019-05-30T22:53:34.464Z,5.27
2019-05-30T22:56:13.694Z,7.20
2019-05-30T22:58:57.267Z,6.30
2019-05-30T23:01:30.527Z,5.50
2019-05-30T23:04:02.246Z,6.20
2019-05-30T23:06:33.490Z,29.30
2019-05-30T23:09:05.877Z,10.20
2019-05-30T23:11:36.985Z,8.67
2019-05-30T23:14:07.971Z,8.27
2019-05-30T23:16:38.666Z,9.43
2019-05-30T23:19:10.504Z,8.97
2019-05-30T23:21:41.811Z,8.03
2019-05-30T23:24:14.773Z,7.43
2019-05-30T23:26:47.355Z,7.83
2019-05-30T23:29:23.303Z,7.17
2019-05-30T23:31:54.354Z,10.27
2019-05-30T23:34:27.175Z,22.17
2019-05-30T23:37:02.200Z,10.87
2019-05-30T23:39:36.326Z,7.87
2019-05-30T23:42:07.033Z,11.33
2019-05-30T23:44:38.112Z,9.40
2019-05-30T23:47:11.754Z,10.43
2019-05-30T23:49:44.839Z,7.87
2019-05-30T23:52:18.230Z,6.00
2019-05-30T23:54:50.009Z,7.47
2019-05-30T23:57:20.801Z,6.27
2019-05-30T23:59:52.715Z,6.47
